首页
METAR-TAF:

METAR-TAF

机场 :

空军基地

Solenzara, 法国

纬度: 41-55N, 经度: 009-24E, 海拔: 8米

当前天气观测

该预报发布于23分钟前的16:30 UTC
风速12节,风向南转西南
温度 25°C
湿度 54%
气压 998 hPa
能见度10公里或以上

METAR: LFKS 041630Z AUTO 20012KT 9999 BKN064/// BKN074/// ///CB 25/15 Q0998

时间: 18:53 (16:53 UTC)

预报

该预报发布于2小时和53分钟前的14:00 UTC
预报有效从04日的 15点(UTC)到 05日的 15点(UTC)
风速10节,风向
能见度10公里或以上
散云层高于5000英尺, 塔状积云.
多云层高于10000英尺
几率 40% :
短暂存在
从 04日的 15点(UTC)到 04日的 21点(UTC)
风速20节,风向,有时为30节阵风
成为
从 04日的 21点(UTC)到 04日的 23点(UTC)
风速10节,风向西
成为
从 05日的 06点(UTC)到 05日的 08点(UTC)
风速15节,风向西,有时为25节阵风
短暂存在
从 05日的 11点(UTC)到 05日的 15点(UTC)
风速20节,风向西,有时为42节阵风

TAF: LFKS 041400Z 0415/0515 18010KT 9999 SCT050TCU BKN100 PROB40 TEMPO 0415/0421 18020G30KT BECMG 0421/0423 27010KT BECMG 0506/0508 27015G25KT TEMPO 0511/0515 27020G42KT

超过4000个机场的气象观测和天气预报(METAR&TAF报告)。

可查询的气象台以黄色和红色小点在地图上表示。

将鼠标移到小点上方,可查看气象台名称。

然后点击查看天气观测和预报。

如需切换地图:点击带黑十字的绿色按钮放大地图;点击带横线的绿色按钮缩小地图;或者点击绿色箭头查看邻近地区的地图。


METAR-TAF: